Have a Safe July 4th! 

Flight Track Log - Related Links

Times and Time Zones

All times are in EDT time to prevent confusion due to time zone crossing. See the KAP280 flight status page for this flight to view local times or setup timezone preferences in your user account.

Time Position Orientation Groundspeed Altitude Reporting Facility
EDT Latitude Longitude Course Direction KTS MPH feet Rate Location/Type
Sun 08:05:38 PM 39.2353 -91.1425 311° West 149 171 6,000  Level Kansas City Center
Sun 08:06:42 PM 39.2669 -91.1900 311° West 147 169 6,000  Level Kansas City Center
Sun 08:07:43 PM 39.2931 -91.2325 308° West 150 173 6,000  Level Kansas City Center
Sun 08:08:43 PM 39.3189 -91.2739 309° West 148 170 6,000  Level Kansas City Center
Sun 08:09:44 PM 39.3447 -91.3161 308° West 149 171 6,000  Level Kansas City Center
Sun 08:10:49 PM 39.3711 -91.3581 309° West 151 174 6,000  Level Kansas City Center
Sun 08:11:50 PM 39.3978 -91.4022 308° West 154 177 6,000  Level Kansas City Center
Sun 08:12:51 PM 39.4292 -91.4528 309° West 152 175 6,000  Level Kansas City Center
Sun 08:13:52 PM 39.4550 -91.4953 308° West 151 174 6,000  Level Kansas City Center
Sun 08:14:56 PM 39.4814 -91.5372 309° West 151 174 6,000  Level Kansas City Center
Sun 08:15:58 PM 39.5092 -91.5817 309° West 151 174 6,000  Level Kansas City Center
Sun 08:16:58 PM 39.5342 -91.6233 308° West 149 171 6,000  Level Kansas City Center
Sun 08:18:00 PM 39.5606 -91.6658 309° West 151 174 6,000  Level Kansas City Center
Sun 08:19:03 PM 39.5878 -91.7078 310° West 154 177 6,000  Level Kansas City Center
Sun 08:20:04 PM 39.6200 -91.7608 308° West 156 180 6,000  Level Kansas City Center
Sun 08:21:05 PM 39.6464 -91.8039 309° West 155 178 6,000  Level Kansas City Center
Sun 08:22:09 PM 39.6731 -91.8503 307° West 158 182 6,000 -97 Level Kansas City Center
Sun 08:23:09 PM 39.7003 -91.8939 309° West 158 182 5,800 -339 Descending Kansas City Center
Sun 08:24:13 PM 39.7303 -91.9431 308° West 165 190 5,300 -484 Descending Kansas City Center
Sun 08:25:13 PM 39.7619 -91.9933 309° West 177 204 4,800 -595 Descending Kansas City Center
Sun 08:26:14 PM 39.7986 -92.0544 308° West 180 207 4,100 -384 Descending Kansas City Center
Sun 08:27:18 PM 39.8286 -92.1042 308° West 179 206 4,000 -48 Descending Kansas City Center
Sun 08:28:19 PM 39.8567 -92.1511 308° West 172 198 4,000  Level Kansas City Center
Sun 08:29:22 PM 39.8842 -92.1964 308° West 166 191 4,000  Level Kansas City Center
Sun 08:30:21 PM 39.9106 -92.2408 308° West 161 185 4,000  Level Kansas City Center

Login

Don't have an account? Register now (free) for customized features, flight alerts, and more!